createdAt,value
2023-05-19T00:01:21.200Z,2.03
2023-05-19T00:03:53.894Z,2.05
2023-05-19T00:06:25.424Z,1.90
2023-05-19T00:09:05.640Z,1.90
2023-05-19T00:11:36.201Z,2.17
2023-05-19T00:14:05.341Z,2.13
2023-05-19T00:16:34.590Z,2.08
2023-05-19T00:19:03.068Z,1.95
2023-05-19T00:21:31.387Z,1.77
2023-05-19T00:23:58.708Z,2.55
2023-05-19T00:26:28.238Z,2.10
2023-05-19T00:29:01.711Z,1.50
2023-05-19T00:31:28.671Z,1.60
2023-05-19T00:33:55.697Z,2.03
2023-05-19T00:36:22.675Z,1.60
2023-05-19T00:38:51.351Z,1.90
2023-05-19T00:41:18.486Z,2.15
2023-05-19T00:43:45.529Z,1.85
2023-05-19T00:46:12.686Z,1.95
2023-05-19T00:48:39.672Z,2.20
2023-05-19T00:51:07.276Z,1.80
2023-05-19T00:53:35.202Z,1.80
2023-05-19T00:56:03.302Z,2.30
2023-05-19T00:58:34.986Z,1.92
2023-05-19T01:01:03.552Z,1.75
2023-05-19T01:03:32.975Z,1.50
2023-05-19T01:06:04.963Z,2.45
2023-05-19T01:08:35.009Z,2.03
2023-05-19T01:11:02.530Z,1.75
2023-05-19T01:13:30.012Z,1.60
2023-05-19T01:16:08.238Z,1.70
2023-05-19T01:18:56.249Z,2.00
2023-05-19T01:22:03.443Z,2.00
2023-05-19T01:24:56.406Z,1.85
2023-05-19T01:27:48.101Z,1.60
2023-05-19T01:30:37.577Z,2.38
2023-05-19T01:33:07.961Z,2.15
2023-05-19T01:35:37.375Z,2.55
2023-05-19T01:38:05.604Z,1.90
2023-05-19T01:40:39.238Z,1.90
2023-05-19T01:43:08.749Z,1.83
2023-05-19T01:45:36.106Z,1.90
2023-05-19T01:48:04.993Z,1.88
2023-05-19T01:50:33.372Z,2.00
2023-05-19T01:53:01.406Z,2.25
2023-05-19T01:55:28.565Z,2.28
2023-05-19T01:58:13.780Z,1.85
2023-05-19T02:00:54.761Z,1.98
2023-05-19T02:03:30.286Z,1.90
2023-05-19T02:06:12.575Z,1.80
2023-05-19T02:08:46.588Z,2.22
2023-05-19T02:11:22.278Z,2.35
2023-05-19T02:13:51.495Z,1.80
2023-05-19T02:16:18.827Z,1.65
2023-05-19T02:18:46.343Z,2.50
2023-05-19T02:21:13.729Z,2.72
2023-05-19T02:23:42.095Z,2.10
2023-05-19T02:26:09.206Z,1.90
2023-05-19T02:28:36.709Z,1.85
2023-05-19T02:31:05.481Z,1.88
2023-05-19T02:33:32.553Z,2.50
2023-05-19T02:35:59.762Z,1.70
2023-05-19T02:38:26.825Z,2.13
2023-05-19T02:40:53.752Z,1.70
2023-05-19T02:43:20.714Z,1.63
2023-05-19T02:45:47.686Z,2.10
2023-05-19T02:48:14.683Z,1.67
2023-05-19T02:50:41.606Z,1.60
2023-05-19T02:53:08.548Z,1.80
2023-05-19T02:55:35.605Z,1.98
2023-05-19T02:58:02.516Z,2.05
2023-05-19T03:00:29.449Z,2.03
2023-05-19T03:02:56.437Z,1.67
2023-05-19T03:05:23.474Z,1.50
2023-05-19T03:07:50.444Z,1.77
2023-05-19T03:10:17.519Z,2.30
2023-05-19T03:12:44.548Z,1.90
2023-05-19T03:15:13.152Z,1.85
2023-05-19T03:17:41.006Z,2.00
2023-05-19T03:20:08.408Z,2.13
2023-05-19T03:22:35.293Z,2.08
2023-05-19T03:25:03.396Z,1.70
2023-05-19T03:27:30.189Z,2.47
2023-05-19T03:29:56.926Z,1.60
2023-05-19T03:32:24.116Z,1.63
2023-05-19T03:34:51.046Z,1.80
2023-05-19T03:37:17.743Z,1.70
2023-05-19T03:39:45.202Z,2.15
2023-05-19T03:42:12.017Z,1.60
2023-05-19T03:44:38.781Z,2.10
2023-05-19T03:47:05.913Z,1.90
2023-05-19T03:50:02.150Z,1.60
2023-05-19T03:52:55.164Z,1.98
2023-05-19T03:55:29.942Z,2.15
2023-05-19T03:57:57.116Z,1.98
2023-05-19T04:00:24.017Z,1.88
2023-05-19T04:02:51.240Z,1.98
2023-05-19T04:05:18.063Z,2.15
2023-05-19T04:07:46.618Z,1.80
2023-05-19T04:10:13.701Z,2.53
2023-05-19T04:12:40.802Z,1.75
2023-05-19T04:15:11.399Z,2.10
2023-05-19T04:17:38.402Z,1.77
2023-05-19T04:20:08.770Z,1.40
2023-05-19T04:22:35.503Z,1.90
2023-05-19T04:25:03.929Z,1.85
2023-05-19T04:27:31.945Z,2.40
2023-05-19T04:29:59.442Z,1.85
2023-05-19T04:32:26.322Z,2.08
2023-05-19T04:34:54.496Z,1.77
2023-05-19T04:37:26.073Z,2.75
2023-05-19T04:39:53.109Z,1.75
2023-05-19T04:42:22.407Z,1.80
2023-05-19T04:44:51.677Z,1.80
2023-05-19T04:47:21.419Z,2.50
2023-05-19T04:49:48.934Z,2.10
2023-05-19T04:52:15.925Z,2.28
2023-05-19T04:54:42.712Z,2.28
2023-05-19T04:57:12.866Z,2.15
2023-05-19T04:59:40.234Z,2.00
2023-05-19T05:02:08.342Z,2.40
2023-05-19T05:04:37.453Z,2.03
2023-05-19T05:07:04.328Z,2.08
2023-05-19T05:09:31.099Z,2.15
2023-05-19T05:12:00.056Z,2.00
2023-05-19T05:14:27.141Z,2.30
2023-05-19T05:16:54.376Z,2.00
2023-05-19T05:19:24.116Z,2.50
2023-05-19T05:21:52.139Z,1.67
2023-05-19T05:24:19.748Z,1.92
2023-05-19T05:26:51.373Z,2.90
2023-05-19T05:29:18.115Z,1.73
2023-05-19T05:31:44.907Z,1.98
2023-05-19T05:34:11.694Z,2.08
2023-05-19T05:36:38.478Z,2.40
2023-05-19T05:39:05.682Z,2.65
2023-05-19T05:41:35.528Z,2.30
2023-05-19T05:44:08.206Z,1.85
2023-05-19T05:46:35.269Z,2.25
2023-05-19T05:49:02.431Z,2.55
2023-05-19T05:51:29.891Z,2.28
2023-05-19T05:53:57.628Z,2.20
2023-05-19T05:56:33.769Z,2.00
2023-05-19T05:59:01.968Z,2.33
2023-05-19T06:01:30.427Z,2.33
2023-05-19T06:03:57.152Z,1.88
2023-05-19T06:06:24.538Z,2.22
2023-05-19T06:08:53.046Z,2.13
2023-05-19T06:11:21.364Z,2.20
2023-05-19T06:13:48.394Z,2.10
2023-05-19T06:16:27.493Z,3.65
2023-05-19T06:18:54.322Z,2.10
2023-05-19T06:21:21.821Z,2.15
2023-05-19T06:23:48.649Z,2.50
2023-05-19T06:26:15.772Z,2.67
2023-05-19T06:28:42.560Z,2.28
2023-05-19T06:31:09.426Z,2.38
2023-05-19T06:33:56.509Z,2.50
2023-05-19T06:36:23.305Z,1.83
2023-05-19T06:38:52.879Z,2.63
2023-05-19T06:41:21.632Z,2.28
2023-05-19T06:43:49.162Z,2.20
2023-05-19T06:46:17.775Z,3.47
2023-05-19T06:48:44.846Z,2.35
2023-05-19T06:51:11.723Z,2.10
2023-05-19T06:53:40.405Z,2.10
2023-05-19T06:56:09.138Z,2.20
2023-05-19T06:58:39.390Z,1.90
2023-05-19T07:01:06.358Z,2.65
2023-05-19T07:03:39.779Z,1.85
2023-05-19T07:06:08.557Z,2.28
2023-05-19T07:08:39.423Z,2.10
2023-05-19T07:11:07.858Z,2.53
2023-05-19T07:13:34.838Z,2.50
2023-05-19T07:16:01.771Z,2.42
2023-05-19T07:18:31.833Z,2.30
2023-05-19T07:20:58.917Z,2.03
2023-05-19T07:23:26.076Z,2.47
2023-05-19T07:25:58.884Z,1.90
2023-05-19T07:28:25.629Z,2.17
2023-05-19T07:30:53.179Z,2.47
2023-05-19T07:33:19.944Z,2.40
2023-05-19T07:35:46.851Z,2.38
2023-05-19T07:38:13.633Z,2.60
2023-05-19T07:40:40.332Z,2.42
2023-05-19T07:43:07.096Z,2.28
2023-05-19T07:45:33.856Z,2.25
2023-05-19T07:48:00.938Z,1.98
2023-05-19T07:50:27.761Z,2.53
2023-05-19T07:52:54.515Z,2.30
2023-05-19T07:55:23.115Z,2.40
2023-05-19T07:57:50.845Z,2.45
2023-05-19T08:00:17.836Z,2.80
2023-05-19T08:02:44.959Z,2.35
2023-05-19T08:05:11.774Z,2.45
2023-05-19T08:07:38.641Z,2.67
2023-05-19T08:10:05.733Z,1.90
2023-05-19T08:12:32.549Z,1.98
2023-05-19T08:15:01.311Z,2.40
2023-05-19T08:17:28.608Z,2.63
2023-05-19T08:19:55.483Z,2.50
2023-05-19T08:22:22.148Z,2.15
2023-05-19T08:24:49.803Z,1.85
2023-05-19T08:27:16.715Z,2.15
2023-05-19T08:29:43.477Z,2.10
2023-05-19T08:32:12.415Z,2.05
2023-05-19T08:34:39.981Z,2.10
2023-05-19T08:37:07.686Z,2.30
2023-05-19T08:39:34.836Z,1.88
2023-05-19T08:42:02.338Z,2.05
2023-05-19T08:44:30.814Z,2.17
2023-05-19T08:47:01.437Z,2.10
2023-05-19T08:49:28.512Z,2.58
2023-05-19T08:52:13.931Z,1.95
2023-05-19T08:54:48.268Z,2.42
2023-05-19T08:57:15.094Z,1.92
2023-05-19T08:59:43.250Z,2.13
2023-05-19T09:02:11.560Z,2.53
2023-05-19T09:04:39.208Z,2.17
2023-05-19T09:07:06.318Z,1.73
2023-05-19T09:09:33.059Z,1.73
2023-05-19T09:11:59.765Z,2.40
2023-05-19T09:14:26.761Z,2.13
2023-05-19T09:16:54.090Z,2.00
2023-05-19T09:19:21.322Z,2.53
2023-05-19T09:21:59.456Z,2.10
2023-05-19T09:24:26.274Z,1.92
2023-05-19T09:26:57.711Z,2.38
2023-05-19T09:29:26.125Z,2.60
2023-05-19T09:31:54.719Z,2.15
2023-05-19T09:34:25.007Z,2.80
2023-05-19T09:36:53.276Z,2.20
2023-05-19T09:39:21.490Z,2.10
2023-05-19T09:41:52.619Z,2.10
2023-05-19T09:44:30.207Z,2.78
2023-05-19T09:46:58.423Z,2.97
2023-05-19T09:49:30.171Z,2.13
2023-05-19T09:51:57.895Z,2.28
2023-05-19T09:54:25.192Z,2.25
2023-05-19T09:56:59.907Z,2.30
2023-05-19T09:59:29.010Z,2.08
2023-05-19T10:01:59.754Z,2.25
2023-05-19T10:04:28.082Z,2.72
2023-05-19T10:06:56.081Z,2.30
2023-05-19T10:09:25.047Z,2.78
2023-05-19T10:11:53.354Z,2.80
2023-05-19T10:14:27.657Z,2.40
2023-05-19T10:16:56.225Z,2.28
2023-05-19T10:19:24.962Z,3.13
2023-05-19T10:21:52.549Z,2.30
2023-05-19T10:24:19.880Z,2.40
2023-05-19T10:26:53.229Z,2.95
2023-05-19T10:29:23.207Z,2.85
2023-05-19T10:31:50.895Z,2.90
2023-05-19T10:34:54.245Z,3.08
2023-05-19T10:37:59.622Z,2.45
2023-05-19T10:41:03.956Z,2.33
2023-05-19T10:43:49.734Z,2.63
2023-05-19T10:46:16.516Z,2.60
2023-05-19T10:48:46.477Z,2.58
2023-05-19T10:51:14.905Z,2.95
2023-05-19T10:53:46.316Z,2.92
2023-05-19T10:56:33.004Z,2.63
2023-05-19T10:59:00.192Z,3.47
2023-05-19T11:01:38.220Z,2.90
2023-05-19T11:04:12.133Z,2.97
2023-05-19T11:06:40.341Z,2.55
2023-05-19T11:09:31.060Z,2.45
2023-05-19T11:12:05.048Z,2.97
2023-05-19T11:14:32.315Z,2.63
2023-05-19T11:17:00.295Z,2.53
2023-05-19T11:19:31.471Z,2.75
2023-05-19T11:22:11.710Z,3.10
2023-05-19T11:24:46.341Z,2.40
2023-05-19T11:27:28.034Z,2.40
2023-05-19T11:29:56.236Z,2.90
2023-05-19T11:32:26.877Z,3.08
2023-05-19T11:34:55.655Z,2.88
2023-05-19T11:37:22.418Z,3.03
2023-05-19T11:39:49.577Z,2.90
2023-05-19T11:42:16.434Z,2.50
2023-05-19T11:44:46.371Z,2.63
2023-05-19T11:47:14.094Z,3.22
2023-05-19T11:49:51.975Z,3.20
2023-05-19T11:52:22.018Z,3.00
2023-05-19T11:54:49.458Z,2.80
2023-05-19T11:57:16.554Z,3.03
2023-05-19T11:59:48.150Z,3.20
2023-05-19T12:02:22.942Z,3.40
2023-05-19T12:04:49.787Z,2.50
2023-05-19T12:07:18.242Z,4.35
2023-05-19T12:09:48.587Z,2.90
2023-05-19T12:12:20.273Z,2.85
2023-05-19T12:14:48.576Z,2.55
2023-05-19T12:17:17.541Z,2.75
2023-05-19T12:19:45.942Z,2.60
2023-05-19T12:22:13.337Z,2.78
2023-05-19T12:24:40.460Z,2.97
2023-05-19T12:27:14.729Z,2.78
2023-05-19T12:29:41.484Z,3.00
2023-05-19T12:32:09.384Z,2.88
2023-05-19T12:34:39.427Z,2.50
2023-05-19T12:37:06.222Z,2.58
2023-05-19T12:39:33.674Z,2.88
2023-05-19T12:42:02.655Z,1.98
2023-05-19T12:44:31.296Z,2.40
2023-05-19T12:46:59.486Z,2.67
2023-05-19T12:49:26.272Z,2.60
2023-05-19T12:51:53.921Z,2.17
2023-05-19T12:54:23.816Z,2.78
2023-05-19T12:56:52.103Z,2.50
2023-05-19T12:59:34.844Z,2.70
2023-05-19T13:02:05.140Z,2.80
2023-05-19T13:04:32.086Z,2.72
2023-05-19T13:06:58.826Z,2.42
2023-05-19T13:09:25.735Z,2.55
2023-05-19T13:11:53.986Z,2.50
2023-05-19T13:14:21.937Z,2.80
2023-05-19T13:16:48.896Z,2.40
2023-05-19T13:19:25.278Z,2.45
2023-05-19T13:21:52.976Z,2.33
2023-05-19T13:24:19.858Z,2.55
2023-05-19T13:26:48.008Z,2.70
2023-05-19T13:29:15.125Z,2.33
2023-05-19T13:31:42.048Z,2.35
2023-05-19T13:34:08.909Z,2.47
2023-05-19T13:36:36.478Z,2.50
2023-05-19T13:39:03.470Z,2.40
2023-05-19T13:41:30.283Z,2.20
2023-05-19T13:43:59.172Z,2.05
2023-05-19T13:46:36.540Z,2.40
2023-05-19T13:49:11.310Z,1.80
2023-05-19T13:51:39.419Z,2.70
2023-05-19T13:54:06.186Z,1.90
2023-05-19T13:56:32.922Z,2.58
2023-05-19T13:58:59.721Z,1.90
2023-05-19T14:01:26.520Z,2.25
2023-05-19T14:03:53.509Z,2.30
2023-05-19T14:06:20.444Z,2.50
2023-05-19T14:08:47.229Z,2.88
2023-05-19T14:11:21.691Z,2.40
2023-05-19T14:13:52.867Z,2.28
2023-05-19T14:16:22.077Z,1.98
2023-05-19T14:18:49.426Z,2.38
2023-05-19T14:21:16.314Z,2.10
2023-05-19T14:23:43.109Z,2.28
2023-05-19T14:26:09.881Z,2.72
2023-05-19T14:28:36.645Z,2.53
2023-05-19T14:31:03.551Z,1.70
2023-05-19T14:33:34.917Z,2.20
2023-05-19T14:36:02.373Z,2.00
2023-05-19T14:38:29.685Z,2.20
2023-05-19T14:40:56.858Z,2.50
2023-05-19T14:43:23.763Z,2.05
2023-05-19T14:45:50.554Z,2.28
2023-05-19T14:48:17.761Z,2.00
2023-05-19T14:50:44.835Z,2.45
2023-05-19T14:53:11.761Z,2.00
2023-05-19T14:55:38.649Z,2.17
2023-05-19T14:58:13.090Z,2.30
2023-05-19T15:00:47.787Z,2.40
2023-05-19T15:03:14.604Z,2.33
2023-05-19T15:05:41.590Z,2.28
2023-05-19T15:08:08.374Z,2.60
2023-05-19T15:10:35.321Z,2.35
2023-05-19T15:13:02.081Z,2.10
2023-05-19T15:15:28.783Z,2.55
2023-05-19T15:17:55.650Z,2.00
2023-05-19T15:20:22.565Z,2.10
2023-05-19T15:22:49.453Z,2.30
2023-05-19T15:25:16.319Z,2.03
2023-05-19T15:27:43.070Z,1.92
2023-05-19T15:30:09.953Z,1.98
2023-05-19T15:32:36.795Z,1.80
2023-05-19T15:35:03.719Z,2.38
2023-05-19T15:37:30.657Z,1.88
2023-05-19T15:39:58.476Z,2.17
2023-05-19T15:42:26.023Z,1.90
2023-05-19T15:44:52.755Z,1.80
2023-05-19T15:47:19.612Z,1.90
2023-05-19T15:49:46.364Z,1.80
2023-05-19T15:52:13.131Z,2.13
2023-05-19T15:54:39.924Z,2.22
2023-05-19T15:57:06.837Z,1.95
2023-05-19T15:59:33.704Z,2.00
2023-05-19T16:02:00.527Z,2.38
2023-05-19T16:04:27.349Z,1.95
2023-05-19T16:06:54.207Z,1.98
2023-05-19T16:09:21.096Z,2.17
2023-05-19T16:11:47.856Z,2.08
2023-05-19T16:14:14.782Z,2.10
2023-05-19T16:16:41.812Z,2.10
2023-05-19T16:19:08.983Z,2.35
2023-05-19T16:21:36.018Z,1.95
2023-05-19T16:24:02.797Z,2.00
2023-05-19T16:26:29.598Z,2.20
2023-05-19T16:28:56.467Z,2.20
2023-05-19T16:31:23.308Z,1.88
2023-05-19T16:33:50.045Z,2.17
2023-05-19T16:36:16.873Z,2.28
2023-05-19T16:38:43.646Z,1.75
2023-05-19T16:41:13.509Z,2.00
2023-05-19T16:43:40.415Z,2.15
2023-05-19T16:46:07.283Z,2.45
2023-05-19T16:48:34.036Z,2.15
2023-05-19T16:51:00.885Z,1.98
2023-05-19T16:53:27.631Z,1.73
2023-05-19T16:55:54.473Z,1.92
2023-05-19T16:58:21.533Z,1.90
2023-05-19T17:00:51.625Z,2.10
2023-05-19T17:03:18.753Z,1.95
2023-05-19T17:05:45.799Z,2.75
2023-05-19T17:08:12.668Z,1.90
2023-05-19T17:10:39.465Z,2.28
2023-05-19T17:13:06.185Z,2.17
2023-05-19T17:15:33.769Z,2.20
2023-05-19T17:18:00.814Z,1.88
2023-05-19T17:20:27.657Z,2.00
2023-05-19T17:22:54.406Z,1.98
2023-05-19T17:25:21.288Z,1.95
2023-05-19T17:27:48.074Z,2.00
2023-05-19T17:30:14.848Z,1.83
2023-05-19T17:32:41.977Z,2.45
2023-05-19T17:35:08.833Z,2.00
2023-05-19T17:37:36.306Z,1.95
2023-05-19T17:40:03.101Z,2.35
2023-05-19T17:42:31.542Z,2.00
2023-05-19T17:44:58.459Z,2.00
2023-05-19T17:47:25.275Z,1.80
2023-05-19T17:52:20.554Z,1.88
2023-05-19T17:54:47.759Z,2.03
2023-05-19T17:57:15.807Z,1.92
2023-05-19T17:59:42.661Z,1.95
2023-05-19T18:02:10.309Z,1.92
2023-05-19T18:04:37.561Z,2.15
2023-05-19T18:07:04.669Z,2.45
2023-05-19T18:09:33.322Z,2.10
2023-05-19T18:12:02.201Z,2.22
2023-05-19T18:14:29.217Z,2.38
2023-05-19T18:16:56.058Z,2.20
2023-05-19T18:19:23.014Z,2.13
2023-05-19T18:21:49.884Z,1.75
2023-05-19T18:24:16.726Z,2.10
2023-05-19T18:26:43.477Z,2.00
2023-05-19T18:29:10.901Z,2.85
2023-05-19T18:31:37.814Z,1.95
2023-05-19T18:34:04.647Z,2.17
2023-05-19T18:36:31.644Z,1.90
2023-05-19T18:39:01.888Z,2.75
2023-05-19T18:41:28.733Z,2.28
2023-05-19T18:43:55.513Z,1.80
2023-05-19T18:46:23.539Z,2.20
2023-05-19T18:48:50.710Z,2.15
2023-05-19T18:51:18.688Z,2.10
2023-05-19T18:53:48.505Z,2.20
2023-05-19T18:56:26.089Z,1.52
2023-05-19T18:58:54.157Z,2.00
2023-05-19T19:01:21.031Z,2.10
2023-05-19T19:03:49.317Z,2.05
2023-05-19T19:06:20.820Z,2.47
2023-05-19T19:08:47.677Z,1.90
2023-05-19T19:11:14.505Z,2.10
2023-05-19T19:13:41.293Z,1.83
2023-05-19T19:16:07.986Z,2.25
2023-05-19T19:18:36.382Z,2.13
2023-05-19T19:21:05.410Z,2.10
2023-05-19T19:23:32.530Z,1.90
2023-05-19T19:25:59.387Z,2.90
2023-05-19T19:28:26.600Z,2.17
2023-05-19T19:30:53.382Z,2.47
2023-05-19T19:33:20.253Z,2.40
2023-05-19T19:35:47.193Z,2.58
2023-05-19T19:38:14.406Z,1.90
2023-05-19T19:40:41.435Z,2.15
2023-05-19T19:43:08.487Z,2.20
2023-05-19T19:45:36.410Z,2.40
2023-05-19T19:48:03.276Z,2.08
2023-05-19T19:50:30.139Z,1.92
2023-05-19T19:52:56.908Z,1.90
2023-05-19T19:55:23.740Z,1.83
2023-05-19T19:57:51.238Z,2.20
2023-05-19T20:00:18.528Z,2.20
2023-05-19T20:03:02.830Z,2.65
2023-05-19T20:05:30.202Z,2.50
2023-05-19T20:07:57.012Z,2.80
2023-05-19T20:10:23.768Z,2.28
2023-05-19T20:12:50.716Z,2.63
2023-05-19T20:15:17.687Z,2.58
2023-05-19T20:17:44.465Z,2.17
2023-05-19T20:20:12.286Z,2.10
2023-05-19T20:22:39.389Z,2.30
2023-05-19T20:25:06.566Z,2.45
2023-05-19T20:27:33.337Z,2.33
2023-05-19T20:30:00.335Z,2.13
2023-05-19T20:32:27.115Z,2.10
2023-05-19T20:34:53.896Z,2.10
2023-05-19T20:37:22.077Z,2.53
2023-05-19T20:39:49.118Z,3.42
2023-05-19T20:42:16.314Z,3.83
2023-05-19T20:44:43.224Z,3.53
2023-05-19T20:47:10.496Z,3.72
2023-05-19T20:49:37.242Z,3.75
2023-05-19T20:52:04.183Z,3.20
2023-05-19T20:54:30.980Z,4.43
2023-05-19T20:56:57.682Z,3.92
2023-05-19T20:59:24.420Z,4.13
2023-05-19T21:01:51.287Z,3.58
2023-05-19T21:04:18.128Z,3.78
2023-05-19T21:06:45.110Z,3.20
2023-05-19T21:09:11.911Z,2.97
2023-05-19T21:11:38.623Z,2.95
2023-05-19T21:14:07.337Z,3.33
2023-05-19T21:16:34.552Z,3.22
2023-05-19T21:19:01.953Z,3.10
2023-05-19T21:21:28.855Z,3.20
2023-05-19T21:23:55.590Z,2.97
2023-05-19T21:26:22.469Z,3.13
2023-05-19T21:28:49.249Z,3.00
2023-05-19T21:31:16.255Z,3.10
2023-05-19T21:33:43.018Z,3.22
2023-05-19T21:36:09.788Z,3.03
2023-05-19T21:38:36.531Z,3.53
2023-05-19T21:41:03.306Z,3.58
2023-05-19T21:43:30.087Z,3.20
2023-05-19T21:45:56.918Z,3.33
2023-05-19T21:48:23.707Z,3.20
2023-05-19T21:50:54.677Z,2.90
2023-05-19T21:53:21.481Z,2.90
2023-05-19T21:55:48.289Z,2.92
2023-05-19T21:58:15.044Z,2.65
2023-05-19T22:00:41.916Z,2.88
2023-05-19T22:03:08.880Z,2.67
2023-05-19T22:05:37.964Z,3.42
2023-05-19T22:08:04.817Z,2.80
2023-05-19T22:10:31.967Z,2.65
2023-05-19T22:12:58.938Z,3.20
2023-05-19T22:15:26.706Z,3.05
2023-05-19T22:17:53.721Z,3.17
2023-05-19T22:20:20.550Z,3.05
2023-05-19T22:22:47.271Z,2.60
2023-05-19T22:25:14.032Z,3.22
2023-05-19T22:27:40.781Z,2.92
2023-05-19T22:30:07.996Z,2.92
2023-05-19T22:32:35.155Z,3.22
2023-05-19T22:35:01.950Z,3.03
2023-05-19T22:37:28.977Z,3.45
2023-05-19T22:39:55.834Z,3.00
2023-05-19T22:42:22.702Z,3.03
2023-05-19T22:44:49.579Z,2.75
2023-05-19T22:47:16.380Z,3.10
2023-05-19T22:49:43.297Z,2.60
2023-05-19T22:52:11.033Z,2.95
2023-05-19T22:54:38.032Z,3.10
2023-05-19T22:57:05.262Z,3.83
2023-05-19T22:59:32.113Z,3.10
2023-05-19T23:01:58.986Z,3.03
2023-05-19T23:04:26.030Z,3.38
2023-05-19T23:06:52.881Z,3.30
2023-05-19T23:09:19.658Z,2.83
2023-05-19T23:11:46.482Z,3.00
2023-05-19T23:14:13.490Z,3.30
2023-05-19T23:16:40.358Z,2.78
2023-05-19T23:19:07.239Z,3.25
2023-05-19T23:21:34.130Z,3.13
2023-05-19T23:24:00.944Z,3.20
2023-05-19T23:26:27.856Z,3.70
2023-05-19T23:28:54.620Z,3.17
2023-05-19T23:31:21.358Z,3.15
2023-05-19T23:33:48.106Z,2.80
2023-05-19T23:36:15.574Z,3.30
2023-05-19T23:38:42.286Z,2.90
2023-05-19T23:41:09.053Z,3.40
2023-05-19T23:43:35.889Z,3.50
2023-05-19T23:46:02.803Z,2.80
2023-05-19T23:48:29.987Z,3.38
2023-05-19T23:50:57.689Z,2.97
2023-05-19T23:53:24.913Z,3.00
2023-05-19T23:55:51.764Z,3.20
2023-05-19T23:58:18.794Z,3.15
